sensor_id;sensor_type;location;lat;lon;timestamp;pressure;altitude;pressure_sealevel;temperature;humidity
5780;BME280;2916;49.798;10.022;2023-04-08T00:01:13;145525.81;;;4.92;96.33
5780;BME280;2916;49.798;10.022;2023-04-08T00:03:40;145513.47;;;4.87;96.57
5780;BME280;2916;49.798;10.022;2023-04-08T00:06:08;145518.38;;;4.89;97.21
5780;BME280;2916;49.798;10.022;2023-04-08T00:08:35;145523.34;;;4.91;97.04
5780;BME280;2916;49.798;10.022;2023-04-08T00:11:02;145508.50;;;4.85;96.96
5780;BME280;2916;49.798;10.022;2023-04-08T00:13:29;145503.53;;;4.83;96.45
5780;BME280;2916;49.798;10.022;2023-04-08T00:15:57;145493.66;;;4.79;96.41
5780;BME280;2916;49.798;10.022;2023-04-08T00:18:25;145461.53;;;4.66;96.72
5780;BME280;2916;49.798;10.022;2023-04-08T00:20:52;145466.50;;;4.68;96.94
5780;BME280;2916;49.798;10.022;2023-04-08T00:23:21;145412.13;;;4.46;96.82
5780;BME280;2916;49.798;10.022;2023-04-08T00:25:49;145439.31;;;4.57;97.36
5780;BME280;2916;49.798;10.022;2023-04-08T00:28:16;145460.31;;;4.65;96.20
5780;BME280;2916;49.798;10.022;2023-04-08T00:30:44;145456.63;;;4.64;96.58
5780;BME280;2916;49.798;10.022;2023-04-08T00:33:11;145450.44;;;4.61;95.87
5780;BME280;2916;49.798;10.022;2023-04-08T00:35:39;145431.88;;;4.54;95.36
5780;BME280;2916;49.798;10.022;2023-04-08T00:38:07;145370.09;;;4.28;95.62
5780;BME280;2916;49.798;10.022;2023-04-08T00:40:34;145430.66;;;4.53;95.09
5780;BME280;2916;49.798;10.022;2023-04-08T00:43:01;145407.16;;;4.43;94.33
5780;BME280;2916;49.798;10.022;2023-04-08T00:45:28;145397.28;;;4.39;93.28
5780;BME280;2916;49.798;10.022;2023-04-08T00:47:56;145361.50;;;4.25;92.59
5780;BME280;2916;49.798;10.022;2023-04-08T00:50:23;145351.63;;;4.21;92.66
5780;BME280;2916;49.798;10.022;2023-04-08T00:52:52;145342.97;;;4.17;91.95
5780;BME280;2916;49.798;10.022;2023-04-08T00:55:19;145323.22;;;4.09;92.55
5780;BME280;2916;49.798;10.022;2023-04-08T00:57:47;145247.88;;;3.78;92.62
5780;BME280;2916;49.798;10.022;2023-04-08T01:00:15;145320.72;;;4.08;93.08
5780;BME280;2916;49.798;10.022;2023-04-08T01:02:49;145236.72;;;3.73;93.24
5780;BME280;2916;49.798;10.022;2023-04-08T01:05:25;145300.94;;;4.00;93.56
5780;BME280;2916;49.798;10.022;2023-04-08T01:08:01;145310.81;;;4.04;93.82
5780;BME280;2916;49.798;10.022;2023-04-08T01:10:34;145281.19;;;3.91;93.25
5780;BME280;2916;49.798;10.022;2023-04-08T01:13:06;145254.03;;;3.80;93.41
5780;BME280;2916;49.798;10.022;2023-04-08T01:15:37;145246.59;;;3.77;92.98
5780;BME280;2916;49.798;10.022;2023-04-08T01:18:08;145245.38;;;3.77;92.99
5780;BME280;2916;49.798;10.022;2023-04-08T01:20:39;145220.72;;;3.66;93.20
5780;BME280;2916;49.798;10.022;2023-04-08T01:23:23;145199.72;;;3.58;93.20
5780;BME280;2916;49.798;10.022;2023-04-08T01:25:58;145204.66;;;3.60;93.52
5780;BME280;2916;49.798;10.022;2023-04-08T01:28:29;145179.94;;;3.50;93.31
5780;BME280;2916;49.798;10.022;2023-04-08T01:30:59;145193.53;;;3.55;93.72
5780;BME280;2916;49.798;10.022;2023-04-08T01:33:28;145172.56;;;3.47;94.39
5780;BME280;2916;49.798;10.022;2023-04-08T01:35:59;145165.16;;;3.43;95.17
5780;BME280;2916;49.798;10.022;2023-04-08T01:38:29;145167.59;;;3.44;94.58
5780;BME280;2916;49.798;10.022;2023-04-08T01:40:59;145129.34;;;3.29;95.17
5780;BME280;2916;49.798;10.022;2023-04-08T01:43:27;145146.63;;;3.36;95.38
5780;BME280;2916;49.798;10.022;2023-04-08T01:45:58;145138.00;;;3.32;95.39
5780;BME280;2916;49.798;10.022;2023-04-08T01:48:27;145123.16;;;3.26;96.08
5780;BME280;2916;49.798;10.022;2023-04-08T01:50:55;145130.56;;;3.29;97.06
5780;BME280;2916;49.798;10.022;2023-04-08T01:53:23;145115.78;;;3.23;96.86
5780;BME280;2916;49.798;10.022;2023-04-08T01:56:00;145114.56;;;3.23;96.63
5780;BME280;2916;49.798;10.022;2023-04-08T01:58:36;145113.28;;;3.22;97.00
5780;BME280;2916;49.798;10.022;2023-04-08T02:01:08;145152.81;;;3.38;99.84
5780;BME280;2916;49.798;10.022;2023-04-08T02:03:37;145145.41;;;3.35;100.00
5780;BME280;2916;49.798;10.022;2023-04-08T02:06:05;145131.81;;;3.30;100.00
5780;BME280;2916;49.798;10.022;2023-04-08T02:08:33;145100.97;;;3.17;100.00
5780;BME280;2916;49.798;10.022;2023-04-08T02:11:03;145119.47;;;3.25;100.00
5780;BME280;2916;49.798;10.022;2023-04-08T02:13:32;145135.53;;;3.31;100.00
5780;BME280;2916;49.798;10.022;2023-04-08T02:16:08;145142.94;;;3.34;100.00
5780;BME280;2916;49.798;10.022;2023-04-08T02:18:42;145155.28;;;3.39;100.00
5780;BME280;2916;49.798;10.022;2023-04-08T02:21:14;145096.03;;;3.15;100.00
5780;BME280;2916;49.798;10.022;2023-04-08T02:23:47;145155.28;;;3.39;100.00
5780;BME280;2916;49.798;10.022;2023-04-08T02:26:19;145154.06;;;3.39;100.00
5780;BME280;2916;49.798;10.022;2023-04-08T02:28:49;145173.78;;;3.47;100.00
5780;BME280;2916;49.798;10.022;2023-04-08T02:31:19;145173.78;;;3.47;100.00
5780;BME280;2916;49.798;10.022;2023-04-08T02:33:49;145179.94;;;3.50;100.00
5780;BME280;2916;49.798;10.022;2023-04-08T02:36:18;145170.06;;;3.45;100.00
5780;BME280;2916;49.798;10.022;2023-04-08T02:38:47;145175.03;;;3.48;100.00
5780;BME280;2916;49.798;10.022;2023-04-08T02:41:15;145152.81;;;3.38;100.00
5780;BME280;2916;49.798;10.022;2023-04-08T02:43:44;145170.06;;;3.45;100.00
5780;BME280;2916;49.798;10.022;2023-04-08T02:46:12;145170.06;;;3.45;100.00
5780;BME280;2916;49.798;10.022;2023-04-08T02:48:40;145181.22;;;3.50;100.00
5780;BME280;2916;49.798;10.022;2023-04-08T02:51:07;145179.94;;;3.50;100.00
5780;BME280;2916;49.798;10.022;2023-04-08T02:53:34;145176.25;;;3.48;100.00
5780;BME280;2916;49.798;10.022;2023-04-08T02:56:01;145178.72;;;3.49;100.00
5780;BME280;2916;49.798;10.022;2023-04-08T02:58:29;145179.94;;;3.50;100.00
5780;BME280;2916;49.798;10.022;2023-04-08T03:00:57;145136.75;;;3.32;100.00
5780;BME280;2916;49.798;10.022;2023-04-08T03:03:25;145188.59;;;3.53;100.00
5780;BME280;2916;49.798;10.022;2023-04-08T03:05:54;145194.78;;;3.56;100.00
5780;BME280;2916;49.798;10.022;2023-04-08T03:08:22;145196.00;;;3.56;100.00
5780;BME280;2916;49.798;10.022;2023-04-08T03:10:49;145172.56;;;3.47;100.00
5780;BME280;2916;49.798;10.022;2023-04-08T03:13:17;145168.84;;;3.45;100.00
5780;BME280;2916;49.798;10.022;2023-04-08T03:15:44;145167.59;;;3.44;100.00
5780;BME280;2916;49.798;10.022;2023-04-08T03:18:12;145175.03;;;3.48;100.00
5780;BME280;2916;49.798;10.022;2023-04-08T03:20:40;145162.69;;;3.42;100.00
5780;BME280;2916;49.798;10.022;2023-04-08T03:23:07;145165.16;;;3.43;100.00
5780;BME280;2916;49.798;10.022;2023-04-08T03:25:34;145172.56;;;3.47;100.00
5780;BME280;2916;49.798;10.022;2023-04-08T03:28:02;145160.19;;;3.41;100.00
5780;BME280;2916;49.798;10.022;2023-04-08T03:30:29;145162.69;;;3.42;100.00
5780;BME280;2916;49.798;10.022;2023-04-08T03:32:56;145150.31;;;3.37;100.00
5780;BME280;2916;49.798;10.022;2023-04-08T03:35:25;145138.00;;;3.32;100.00
5780;BME280;2916;49.798;10.022;2023-04-08T03:37:53;145170.06;;;3.45;100.00
5780;BME280;2916;49.798;10.022;2023-04-08T03:40:20;145175.03;;;3.48;100.00
5780;BME280;2916;49.798;10.022;2023-04-08T03:42:47;145160.19;;;3.41;100.00
5780;BME280;2916;49.798;10.022;2023-04-08T03:45:14;145155.28;;;3.39;100.00
5780;BME280;2916;49.798;10.022;2023-04-08T03:47:42;145147.84;;;3.36;99.96
5780;BME280;2916;49.798;10.022;2023-04-08T03:50:10;145160.19;;;3.41;99.83
5780;BME280;2916;49.798;10.022;2023-04-08T03:52:38;145146.63;;;3.36;99.76
5780;BME280;2916;49.798;10.022;2023-04-08T03:55:07;145160.19;;;3.41;100.00
5780;BME280;2916;49.798;10.022;2023-04-08T03:57:34;145162.69;;;3.42;99.77
5780;BME280;2916;49.798;10.022;2023-04-08T04:00:01;145162.69;;;3.42;99.48
5780;BME280;2916;49.798;10.022;2023-04-08T04:02:28;145154.06;;;3.39;100.00
5780;BME280;2916;49.798;10.022;2023-04-08T04:04:55;145163.91;;;3.43;100.00
5780;BME280;2916;49.798;10.022;2023-04-08T04:07:23;145165.16;;;3.43;100.00
5780;BME280;2916;49.798;10.022;2023-04-08T04:09:51;145157.72;;;3.40;99.67
5780;BME280;2916;49.798;10.022;2023-04-08T04:12:21;145113.28;;;3.22;100.00
5780;BME280;2916;49.798;10.022;2023-04-08T04:14:49;145145.41;;;3.35;100.00
5780;BME280;2916;49.798;10.022;2023-04-08T04:17:16;145093.53;;;3.14;100.00
5780;BME280;2916;49.798;10.022;2023-04-08T04:19:43;145059.03;;;3.00;100.00
5780;BME280;2916;49.798;10.022;2023-04-08T04:22:10;145110.81;;;3.21;99.15
5780;BME280;2916;49.798;10.022;2023-04-08T04:24:37;145128.13;;;3.28;99.08
5780;BME280;2916;49.798;10.022;2023-04-08T04:27:06;145088.63;;;3.12;98.96
5780;BME280;2916;49.798;10.022;2023-04-08T04:29:33;145113.28;;;3.22;99.08
5780;BME280;2916;49.798;10.022;2023-04-08T04:32:01;145105.91;;;3.19;99.08
5780;BME280;2916;49.798;10.022;2023-04-08T04:34:28;145105.91;;;3.19;99.03
5780;BME280;2916;49.798;10.022;2023-04-08T04:36:55;145103.41;;;3.18;99.36
5780;BME280;2916;49.798;10.022;2023-04-08T04:39:22;145117.00;;;3.24;99.79
5780;BME280;2916;49.798;10.022;2023-04-08T04:41:50;145123.16;;;3.26;99.77
5780;BME280;2916;49.798;10.022;2023-04-08T04:44:18;145103.41;;;3.18;99.99
5780;BME280;2916;49.798;10.022;2023-04-08T04:46:45;145113.28;;;3.22;100.00
5780;BME280;2916;49.798;10.022;2023-04-08T04:49:12;145126.88;;;3.28;100.00
5780;BME280;2916;49.798;10.022;2023-04-08T04:51:40;145128.13;;;3.28;100.00
5780;BME280;2916;49.798;10.022;2023-04-08T04:54:07;145133.06;;;3.30;100.00
5780;BME280;2916;49.798;10.022;2023-04-08T04:56:34;145140.44;;;3.33;100.00
5780;BME280;2916;49.798;10.022;2023-04-08T04:59:01;145140.44;;;3.33;100.00
5780;BME280;2916;49.798;10.022;2023-04-08T05:01:31;145091.09;;;3.13;100.00
5780;BME280;2916;49.798;10.022;2023-04-08T05:03:58;145142.94;;;3.34;100.00
5780;BME280;2916;49.798;10.022;2023-04-08T05:06:25;145147.84;;;3.36;100.00
5780;BME280;2916;49.798;10.022;2023-04-08T05:08:53;145152.81;;;3.38;100.00
5780;BME280;2916;49.798;10.022;2023-04-08T05:11:20;145171.34;;;3.46;100.00
5780;BME280;2916;49.798;10.022;2023-04-08T05:13:47;145105.91;;;3.19;100.00
5780;BME280;2916;49.798;10.022;2023-04-08T05:16:14;145128.13;;;3.28;100.00
5780;BME280;2916;49.798;10.022;2023-04-08T05:18:43;145203.41;;;3.59;100.00
5780;BME280;2916;49.798;10.022;2023-04-08T05:21:11;145215.75;;;3.64;100.00
5780;BME280;2916;49.798;10.022;2023-04-08T05:23:38;145236.72;;;3.73;100.00
5780;BME280;2916;49.798;10.022;2023-04-08T05:26:06;145241.69;;;3.75;100.00
5780;BME280;2916;49.798;10.022;2023-04-08T05:28:34;145263.91;;;3.84;100.00
5780;BME280;2916;49.798;10.022;2023-04-08T05:31:02;145288.63;;;3.94;100.00
5780;BME280;2916;49.798;10.022;2023-04-08T05:33:29;145289.84;;;3.95;100.00
5780;BME280;2916;49.798;10.022;2023-04-08T05:35:57;145268.88;;;3.86;100.00
5780;BME280;2916;49.798;10.022;2023-04-08T05:38:25;145360.22;;;4.24;100.00
5780;BME280;2916;49.798;10.022;2023-04-08T05:40:52;145397.28;;;4.39;100.00
5780;BME280;2916;49.798;10.022;2023-04-08T05:43:19;145430.66;;;4.53;100.00
5780;BME280;2916;49.798;10.022;2023-04-08T05:45:47;145446.75;;;4.60;100.00
5780;BME280;2916;49.798;10.022;2023-04-08T05:48:14;145466.50;;;4.68;100.00
5780;BME280;2916;49.798;10.022;2023-04-08T05:50:41;145487.50;;;4.77;100.00
5780;BME280;2916;49.798;10.022;2023-04-08T05:53:10;145520.84;;;4.90;100.00
5780;BME280;2916;49.798;10.022;2023-04-08T05:55:37;145538.16;;;4.98;100.00
5780;BME280;2916;49.798;10.022;2023-04-08T05:58:04;145544.34;;;5.00;98.90
5780;BME280;2916;49.798;10.022;2023-04-08T06:00:32;145518.38;;;4.89;96.93
5780;BME280;2916;49.798;10.022;2023-04-08T06:02:59;145570.31;;;5.11;96.79
5780;BME280;2916;49.798;10.022;2023-04-08T06:05:26;145555.47;;;5.05;96.38
5780;BME280;2916;49.798;10.022;2023-04-08T06:07:54;145493.66;;;4.79;95.92
5780;BME280;2916;49.798;10.022;2023-04-08T06:10:22;145627.13;;;5.34;95.07
5780;BME280;2916;49.798;10.022;2023-04-08T06:12:50;145622.22;;;5.32;94.87
5780;BME280;2916;49.798;10.022;2023-04-08T06:15:17;145649.41;;;5.44;94.60
5780;BME280;2916;49.798;10.022;2023-04-08T06:17:45;145664.22;;;5.50;94.82
5780;BME280;2916;49.798;10.022;2023-04-08T06:20:13;145624.66;;;5.33;94.25
5780;BME280;2916;49.798;10.022;2023-04-08T06:22:40;145682.75;;;5.57;93.60
5780;BME280;2916;49.798;10.022;2023-04-08T06:25:08;145649.41;;;5.44;94.29
5780;BME280;2916;49.798;10.022;2023-04-08T06:27:37;145616.00;;;5.30;92.80
5780;BME280;2916;49.798;10.022;2023-04-08T06:30:06;145718.63;;;5.72;91.97
5780;BME280;2916;49.798;10.022;2023-04-08T06:32:33;145723.59;;;5.74;91.57
5780;BME280;2916;49.798;10.022;2023-04-08T06:35:00;145738.41;;;5.80;92.51
5780;BME280;2916;49.798;10.022;2023-04-08T06:37:28;145755.75;;;5.87;92.04
5780;BME280;2916;49.798;10.022;2023-04-08T06:39:55;145748.31;;;5.84;90.53
5780;BME280;2916;49.798;10.022;2023-04-08T06:42:22;145775.56;;;5.96;90.85
5780;BME280;2916;49.798;10.022;2023-04-08T06:44:51;145761.94;;;5.90;87.96
5780;BME280;2916;49.798;10.022;2023-04-08T06:47:18;145733.50;;;5.78;85.30
5780;BME280;2916;49.798;10.022;2023-04-08T06:49:45;145639.53;;;5.39;86.08
5780;BME280;2916;49.798;10.022;2023-04-08T06:52:13;145745.84;;;5.83;85.23
5780;BME280;2916;49.798;10.022;2023-04-08T06:54:40;145706.28;;;5.67;83.87
5780;BME280;2916;49.798;10.022;2023-04-08T06:57:08;145794.13;;;6.03;85.43
5780;BME280;2916;49.798;10.022;2023-04-08T06:59:35;145812.69;;;6.11;84.30
5780;BME280;2916;49.798;10.022;2023-04-08T07:02:03;145749.53;;;5.85;83.77
5780;BME280;2916;49.798;10.022;2023-04-08T07:04:31;145794.13;;;6.03;82.89
5780;BME280;2916;49.798;10.022;2023-04-08T07:06:58;145818.88;;;6.13;81.40
5780;BME280;2916;49.798;10.022;2023-04-08T07:09:26;145765.63;;;5.91;81.37
5780;BME280;2916;49.798;10.022;2023-04-08T07:11:53;145869.59;;;6.34;82.56
5780;BME280;2916;49.798;10.022;2023-04-08T07:14:20;145904.25;;;6.49;82.16
5780;BME280;2916;49.798;10.022;2023-04-08T07:16:47;145899.28;;;6.47;82.33
5780;BME280;2916;49.798;10.022;2023-04-08T07:19:16;145909.16;;;6.51;81.88
5780;BME280;2916;49.798;10.022;2023-04-08T07:21:43;145912.88;;;6.52;81.46
5780;BME280;2916;49.798;10.022;2023-04-08T07:24:10;145853.50;;;6.28;80.62
5780;BME280;2916;49.798;10.022;2023-04-08T07:26:38;145909.16;;;6.51;78.91
5780;BME280;2916;49.798;10.022;2023-04-08T07:29:06;145828.78;;;6.18;79.69
5780;BME280;2916;49.798;10.022;2023-04-08T07:31:33;145901.75;;;6.48;79.74
5780;BME280;2916;49.798;10.022;2023-04-08T07:34:01;145906.72;;;6.50;81.13
5780;BME280;2916;49.798;10.022;2023-04-08T07:36:29;145816.38;;;6.12;79.90
5780;BME280;2916;49.798;10.022;2023-04-08T07:38:57;145894.34;;;6.45;80.03
5780;BME280;2916;49.798;10.022;2023-04-08T07:41:24;145900.50;;;6.47;80.23
5780;BME280;2916;49.798;10.022;2023-04-08T07:43:51;145883.19;;;6.40;78.91
5780;BME280;2916;49.798;10.022;2023-04-08T07:46:19;145869.59;;;6.34;78.79
5780;BME280;2916;49.798;10.022;2023-04-08T07:48:46;145879.47;;;6.38;78.96
5780;BME280;2916;49.798;10.022;2023-04-08T07:51:13;145886.91;;;6.42;78.97
5780;BME280;2916;49.798;10.022;2023-04-08T07:53:42;145805.25;;;6.08;77.80
5780;BME280;2916;49.798;10.022;2023-04-08T07:56:13;145839.91;;;6.22;77.40
5780;BME280;2916;49.798;10.022;2023-04-08T07:58:41;145854.72;;;6.28;78.41
5780;BME280;2916;49.798;10.022;2023-04-08T08:01:16;145867.13;;;6.33;78.18
5780;BME280;2916;49.798;10.022;2023-04-08T08:03:44;145869.59;;;6.34;78.57
5780;BME280;2916;49.798;10.022;2023-04-08T08:06:12;145901.75;;;6.48;78.39
5780;BME280;2916;49.798;10.022;2023-04-08T08:08:41;145922.81;;;6.56;79.91
5780;BME280;2916;49.798;10.022;2023-04-08T08:11:08;145889.38;;;6.43;78.54
5780;BME280;2916;49.798;10.022;2023-04-08T08:13:35;145924.03;;;6.57;79.26
5780;BME280;2916;49.798;10.022;2023-04-08T08:16:03;145919.06;;;6.55;79.15
5780;BME280;2916;49.798;10.022;2023-04-08T08:18:33;145932.72;;;6.60;78.92
5780;BME280;2916;49.798;10.022;2023-04-08T08:21:01;145958.66;;;6.71;78.76
5780;BME280;2916;49.798;10.022;2023-04-08T08:23:28;145973.53;;;6.77;78.21
5780;BME280;2916;49.798;10.022;2023-04-08T08:26:00;145952.50;;;6.69;77.61
5780;BME280;2916;49.798;10.022;2023-04-08T08:28:28;145993.31;;;6.85;77.08
5780;BME280;2916;49.798;10.022;2023-04-08T08:30:55;145988.34;;;6.83;77.49
5780;BME280;2916;49.798;10.022;2023-04-08T08:33:23;145942.59;;;6.64;76.94
5780;BME280;2916;49.798;10.022;2023-04-08T08:35:50;145945.06;;;6.66;77.36
5780;BME280;2916;49.798;10.022;2023-04-08T08:38:17;145948.75;;;6.67;78.06
5780;BME280;2916;49.798;10.022;2023-04-08T08:40:45;145914.16;;;6.53;77.69
5780;BME280;2916;49.798;10.022;2023-04-08T08:43:13;145980.97;;;6.80;78.46
5780;BME280;2916;49.798;10.022;2023-04-08T08:45:41;145909.16;;;6.51;77.14
5780;BME280;2916;49.798;10.022;2023-04-08T08:48:09;145990.88;;;6.84;78.00
5780;BME280;2916;49.798;10.022;2023-04-08T08:50:36;146031.69;;;7.01;78.22
5780;BME280;2916;49.798;10.022;2023-04-08T08:53:03;146003.22;;;6.89;76.33
5780;BME280;2916;49.798;10.022;2023-04-08T08:55:31;145995.78;;;6.86;76.98
5780;BME280;2916;49.798;10.022;2023-04-08T08:58:00;146056.47;;;7.11;76.47
5780;BME280;2916;49.798;10.022;2023-04-08T09:00:33;146141.88;;;7.47;76.53
5780;BME280;2916;49.798;10.022;2023-04-08T09:03:17;146166.63;;;7.57;76.82
5780;BME280;2916;49.798;10.022;2023-04-08T09:05:50;146151.78;;;7.51;75.53
5780;BME280;2916;49.798;10.022;2023-04-08T09:08:28;146228.56;;;7.82;75.88
5780;BME280;2916;49.798;10.022;2023-04-08T09:11:10;146290.47;;;8.08;76.55
5780;BME280;2916;49.798;10.022;2023-04-08T09:13:38;146283.03;;;8.05;75.69
5780;BME280;2916;49.798;10.022;2023-04-08T09:16:09;146297.91;;;8.11;74.00
5780;BME280;2916;49.798;10.022;2023-04-08T09:18:38;146245.88;;;7.90;72.94
5780;BME280;2916;49.798;10.022;2023-04-08T09:21:06;146346.22;;;8.31;74.46
5780;BME280;2916;49.798;10.022;2023-04-08T09:23:42;146377.25;;;8.44;73.13
5780;BME280;2916;49.798;10.022;2023-04-08T09:26:12;146445.38;;;8.72;73.35
5780;BME280;2916;49.798;10.022;2023-04-08T09:28:41;146302.84;;;8.13;72.73
5780;BME280;2916;49.798;10.022;2023-04-08T09:31:24;146436.72;;;8.68;73.22
5780;BME280;2916;49.798;10.022;2023-04-08T09:33:54;146476.41;;;8.84;72.31
5780;BME280;2916;49.798;10.022;2023-04-08T09:36:22;146501.16;;;8.95;71.80
5780;BME280;2916;49.798;10.022;2023-04-08T09:38:49;146478.88;;;8.85;72.03
5780;BME280;2916;49.798;10.022;2023-04-08T09:41:18;146491.25;;;8.91;71.76
5780;BME280;2916;49.798;10.022;2023-04-08T09:43:50;146568.13;;;9.22;71.04
5780;BME280;2916;49.798;10.022;2023-04-08T09:46:30;146573.09;;;9.24;71.30
5780;BME280;2916;49.798;10.022;2023-04-08T09:49:04;146600.38;;;9.36;72.05
5780;BME280;2916;49.798;10.022;2023-04-08T09:51:39;146649.97;;;9.56;70.14
5780;BME280;2916;49.798;10.022;2023-04-08T09:54:13;146648.72;;;9.55;70.52
5780;BME280;2916;49.798;10.022;2023-04-08T09:56:47;146729.31;;;9.89;69.35
5780;BME280;2916;49.798;10.022;2023-04-08T09:59:17;146740.47;;;9.93;69.85
5780;BME280;2916;49.798;10.022;2023-04-08T10:01:52;146689.63;;;9.72;68.81
5780;BME280;2916;49.798;10.022;2023-04-08T10:04:23;146880.72;;;10.51;69.73
5780;BME280;2916;49.798;10.022;2023-04-08T10:07:03;146770.25;;;10.05;67.74
5780;BME280;2916;49.798;10.022;2023-04-08T10:09:30;146867.09;;;10.45;67.82
5780;BME280;2916;49.798;10.022;2023-04-08T10:12:00;146834.81;;;10.32;67.14
5780;BME280;2916;49.798;10.022;2023-04-08T10:14:27;146890.66;;;10.55;68.33
5780;BME280;2916;49.798;10.022;2023-04-08T10:17:24;146849.72;;;10.38;68.30
5780;BME280;2916;49.798;10.022;2023-04-08T10:19:52;146864.59;;;10.44;68.48
5780;BME280;2916;49.798;10.022;2023-04-08T10:22:47;146816.16;;;10.24;67.40
5780;BME280;2916;49.798;10.022;2023-04-08T10:25:29;146826.13;;;10.28;67.56
5780;BME280;2916;49.798;10.022;2023-04-08T10:27:57;146783.91;;;10.11;67.73
5780;BME280;2916;49.798;10.022;2023-04-08T10:30:42;146774.00;;;10.07;67.19
5780;BME280;2916;49.798;10.022;2023-04-08T10:33:14;146771.47;;;10.06;67.25
5780;BME280;2916;49.798;10.022;2023-04-08T10:35:45;146802.53;;;10.19;68.58
5780;BME280;2916;49.798;10.022;2023-04-08T10:38:14;146806.22;;;10.20;67.36
5780;BME280;2916;49.798;10.022;2023-04-08T10:40:43;146791.38;;;10.14;67.79
5780;BME280;2916;49.798;10.022;2023-04-08T10:43:12;146821.19;;;10.26;68.01
5780;BME280;2916;49.798;10.022;2023-04-08T10:45:42;146875.75;;;10.49;68.86
5780;BME280;2916;49.798;10.022;2023-04-08T10:48:23;146863.34;;;10.44;66.58
5780;BME280;2916;49.798;10.022;2023-04-08T10:50:55;146869.56;;;10.46;67.49
5780;BME280;2916;49.798;10.022;2023-04-08T10:53:27;146912.97;;;10.64;67.76
5780;BME280;2916;49.798;10.022;2023-04-08T10:56:02;146905.56;;;10.61;67.67
5780;BME280;2916;49.798;10.022;2023-04-08T10:58:30;146920.44;;;10.67;67.36
5780;BME280;2916;49.798;10.022;2023-04-08T11:01:03;146868.34;;;10.46;67.08
5780;BME280;2916;49.798;10.022;2023-04-08T11:03:34;146885.66;;;10.53;67.72
5780;BME280;2916;49.798;10.022;2023-04-08T11:06:02;146900.59;;;10.59;67.39
5780;BME280;2916;49.798;10.022;2023-04-08T11:08:30;146895.59;;;10.57;67.34
5780;BME280;2916;49.798;10.022;2023-04-08T11:10:58;146811.22;;;10.22;67.92
5780;BME280;2916;49.798;10.022;2023-04-08T11:13:27;146873.28;;;10.48;68.52
5780;BME280;2916;49.798;10.022;2023-04-08T11:15:55;146880.72;;;10.51;68.23
5780;BME280;2916;49.798;10.022;2023-04-08T11:18:23;146858.41;;;10.42;67.40
5780;BME280;2916;49.798;10.022;2023-04-08T11:20:52;146895.59;;;10.57;68.27
5780;BME280;2916;49.798;10.022;2023-04-08T11:23:20;146788.84;;;10.13;67.80
5780;BME280;2916;49.798;10.022;2023-04-08T11:25:48;146811.22;;;10.22;69.19
5780;BME280;2916;49.798;10.022;2023-04-08T11:28:17;146852.19;;;10.39;69.78
5780;BME280;2916;49.798;10.022;2023-04-08T11:30:44;146859.66;;;10.42;68.39
5780;BME280;2916;49.798;10.022;2023-04-08T11:33:13;146950.22;;;10.79;68.35
5780;BME280;2916;49.798;10.022;2023-04-08T11:35:41;146930.34;;;10.71;67.81
5780;BME280;2916;49.798;10.022;2023-04-08T11:38:11;146860.88;;;10.43;68.01
5780;BME280;2916;49.798;10.022;2023-04-08T11:40:38;146992.44;;;10.97;68.74
5780;BME280;2916;49.798;10.022;2023-04-08T11:43:09;146992.44;;;10.97;67.91
5780;BME280;2916;49.798;10.022;2023-04-08T11:45:38;147009.78;;;11.04;67.24
5780;BME280;2916;49.798;10.022;2023-04-08T11:48:10;146967.59;;;10.87;67.17
5780;BME280;2916;49.798;10.022;2023-04-08T11:50:37;146986.22;;;10.94;68.09
5780;BME280;2916;49.798;10.022;2023-04-08T11:53:17;146975.06;;;10.90;67.63
5780;BME280;2916;49.798;10.022;2023-04-08T11:55:46;147003.59;;;11.01;67.66
5780;BME280;2916;49.798;10.022;2023-04-08T11:58:15;146987.47;;;10.95;67.75
5780;BME280;2916;49.798;10.022;2023-04-08T12:00:43;147002.38;;;11.01;68.84
5780;BME280;2916;49.798;10.022;2023-04-08T12:03:12;146950.22;;;10.79;67.17
5780;BME280;2916;49.798;10.022;2023-04-08T12:05:39;147038.34;;;11.16;66.62
5780;BME280;2916;49.798;10.022;2023-04-08T12:08:07;147052.00;;;11.21;67.93
5780;BME280;2916;49.798;10.022;2023-04-08T12:10:35;147037.09;;;11.15;67.08
5780;BME280;2916;49.798;10.022;2023-04-08T12:13:03;147034.63;;;11.14;67.50
5780;BME280;2916;49.798;10.022;2023-04-08T12:15:30;146996.16;;;10.98;67.89
5780;BME280;2916;49.798;10.022;2023-04-08T12:17:57;146945.28;;;10.77;67.82
5780;BME280;2916;49.798;10.022;2023-04-08T12:20:24;146957.66;;;10.82;68.00
5780;BME280;2916;49.798;10.022;2023-04-08T12:22:52;146976.28;;;10.90;68.23
5780;BME280;2916;49.798;10.022;2023-04-08T12:25:19;146980.00;;;10.92;68.85
5780;BME280;2916;49.798;10.022;2023-04-08T12:27:47;147003.59;;;11.01;69.29
5780;BME280;2916;49.798;10.022;2023-04-08T12:30:15;146947.75;;;10.78;68.26
5780;BME280;2916;49.798;10.022;2023-04-08T12:32:42;146970.06;;;10.88;69.36
5780;BME280;2916;49.798;10.022;2023-04-08T12:35:10;146957.66;;;10.82;68.94
5780;BME280;2916;49.798;10.022;2023-04-08T12:37:37;147009.78;;;11.04;69.29
5780;BME280;2916;49.798;10.022;2023-04-08T12:40:07;147049.53;;;11.20;68.77
5780;BME280;2916;49.798;10.022;2023-04-08T12:42:34;147022.22;;;11.09;68.94
5780;BME280;2916;49.798;10.022;2023-04-08T12:45:03;147022.22;;;11.09;68.81
5780;BME280;2916;49.798;10.022;2023-04-08T12:47:31;147012.31;;;11.05;69.65
5780;BME280;2916;49.798;10.022;2023-04-08T12:49:59;147007.31;;;11.03;68.70
5780;BME280;2916;49.798;10.022;2023-04-08T12:52:26;146904.28;;;10.61;70.70
5780;BME280;2916;49.798;10.022;2023-04-08T12:54:54;146864.59;;;10.44;69.92
5780;BME280;2916;49.798;10.022;2023-04-08T12:57:21;146994.91;;;10.98;70.21
5780;BME280;2916;49.798;10.022;2023-04-08T12:59:48;147011.06;;;11.04;68.71
5780;BME280;2916;49.798;10.022;2023-04-08T13:02:17;146966.38;;;10.86;68.97
5780;BME280;2916;49.798;10.022;2023-04-08T13:04:44;147055.72;;;11.23;69.09
5780;BME280;2916;49.798;10.022;2023-04-08T13:07:11;147071.88;;;11.29;68.56
5780;BME280;2916;49.798;10.022;2023-04-08T13:09:39;147039.63;;;11.16;69.47
5780;BME280;2916;49.798;10.022;2023-04-08T13:12:06;147068.16;;;11.28;68.21
5780;BME280;2916;49.798;10.022;2023-04-08T13:14:33;147084.28;;;11.35;68.54